createdAt,value
2018-04-07T00:00:00.702Z,11.20
2018-04-07T00:01:00.685Z,10.70
2018-04-07T00:02:00.672Z,10.90
2018-04-07T00:03:00.666Z,10.80
2018-04-07T00:04:00.647Z,11.30
2018-04-07T00:05:00.635Z,11.40
2018-04-07T00:06:00.628Z,11.20
2018-04-07T00:07:00.610Z,11.20
2018-04-07T00:08:00.614Z,10.80
2018-04-07T00:09:00.588Z,11.40
2018-04-07T00:10:00.585Z,10.60
2018-04-07T00:11:00.561Z,10.80
2018-04-07T00:12:00.552Z,11.50
2018-04-07T00:13:00.546Z,11.60
2018-04-07T00:14:00.525Z,11.70
2018-04-07T00:15:00.512Z,10.60
2018-04-07T00:16:00.499Z,10.80
2018-04-07T00:17:00.486Z,11.60
2018-04-07T00:18:00.482Z,10.60
2018-04-07T00:19:00.470Z,11.60
2018-04-07T00:20:00.453Z,11.30
2018-04-07T00:21:00.436Z,11.80
2018-04-07T00:22:00.425Z,11.40
2018-04-07T00:23:00.411Z,11.40
2018-04-07T00:24:00.397Z,11.60
2018-04-07T00:25:00.387Z,11.70
2018-04-07T00:26:00.377Z,12.30
2018-04-07T00:27:00.366Z,12.20
2018-04-07T00:28:00.348Z,11.30
2018-04-07T00:29:00.337Z,11.40
2018-04-07T00:30:00.321Z,11.80
2018-04-07T00:31:00.316Z,11.50
2018-04-07T00:32:00.300Z,11.40
2018-04-07T00:33:00.286Z,11.80
2018-04-07T00:34:00.271Z,12.10
2018-04-07T00:35:00.258Z,12.00
2018-04-07T00:36:00.249Z,11.90
2018-04-07T00:37:00.234Z,11.40
2018-04-07T00:38:00.219Z,11.80
2018-04-07T00:39:00.215Z,11.90
2018-04-07T00:40:00.196Z,11.20
2018-04-07T00:41:00.184Z,11.30
2018-04-07T00:42:00.174Z,11.70
2018-04-07T00:43:00.156Z,11.20
2018-04-07T00:44:00.151Z,11.10
2018-04-07T00:45:00.135Z,10.30
2018-04-07T00:46:00.120Z,11.70
2018-04-07T00:47:00.105Z,10.80
2018-04-07T00:48:00.094Z,9.70
2018-04-07T00:49:00.083Z,10.80
2018-04-07T00:50:00.070Z,11.40
2018-04-07T00:51:00.055Z,11.90
2018-04-07T00:52:00.047Z,11.50
2018-04-07T00:53:00.035Z,11.50
2018-04-07T00:54:00.015Z,10.80
2018-04-07T00:55:00.004Z,11.30
2018-04-07T00:55:59.998Z,11.30
2018-04-07T00:56:59.978Z,11.10
2018-04-07T00:57:59.965Z,11.60
2018-04-07T00:58:59.957Z,11.50
2018-04-07T00:59:59.942Z,11.80
2018-04-07T01:00:59.936Z,10.40
2018-04-07T01:01:59.913Z,11.90
2018-04-07T01:02:59.910Z,11.00
2018-04-07T01:03:59.889Z,10.40
2018-04-07T01:04:59.876Z,11.10
2018-04-07T01:05:59.864Z,12.10
2018-04-07T01:06:59.850Z,11.10
2018-04-07T01:07:59.844Z,11.90
2018-04-07T01:08:59.825Z,11.80
2018-04-07T01:09:59.812Z,12.10
2018-04-07T01:10:59.800Z,10.60
2018-04-07T01:11:59.787Z,11.40
2018-04-07T01:12:59.775Z,12.30
2018-04-07T01:13:59.760Z,12.00
2018-04-07T01:14:59.749Z,12.00
2018-04-07T01:15:59.736Z,11.50
2018-04-07T01:16:59.733Z,11.10
2018-04-07T01:17:59.710Z,11.40
2018-04-07T01:18:59.716Z,11.70
2018-04-07T01:19:59.691Z,11.20
2018-04-07T01:20:59.677Z,11.90
2018-04-07T01:21:59.659Z,11.60
2018-04-07T01:22:59.645Z,12.40
2018-04-07T01:23:59.634Z,11.60
2018-04-07T01:24:59.626Z,11.80
2018-04-07T01:25:59.611Z,11.20
2018-04-07T01:26:59.594Z,11.80
2018-04-07T01:27:59.581Z,12.70
2018-04-07T01:28:59.569Z,12.50
2018-04-07T01:29:59.554Z,11.40
2018-04-07T01:30:59.542Z,11.30
2018-04-07T01:31:59.531Z,12.50
2018-04-07T01:32:59.517Z,12.80
2018-04-07T01:33:59.503Z,12.10
2018-04-07T01:34:59.497Z,10.50
2018-04-07T01:35:59.733Z,11.10
2018-04-07T01:36:59.468Z,11.40
2018-04-07T01:37:59.450Z,12.10
2018-04-07T01:38:59.436Z,11.00
2018-04-07T01:39:59.426Z,10.40
2018-04-07T01:40:59.411Z,9.90
2018-04-07T01:41:59.397Z,9.90
2018-04-07T01:42:59.388Z,10.70
2018-04-07T01:43:59.376Z,10.70
2018-04-07T01:44:59.361Z,11.10
2018-04-07T01:45:59.346Z,10.30
2018-04-07T01:46:59.335Z,10.00
2018-04-07T01:47:59.340Z,8.90
2018-04-07T01:48:59.313Z,9.70
2018-04-07T01:49:59.294Z,9.70
2018-04-07T01:50:59.280Z,10.00
2018-04-07T01:51:59.275Z,9.20
2018-04-07T01:52:59.256Z,9.30
2018-04-07T01:53:59.240Z,9.50
2018-04-07T01:54:59.228Z,9.90
2018-04-07T01:55:59.217Z,9.60
2018-04-07T01:56:59.202Z,11.30
2018-04-07T01:57:59.196Z,11.10
2018-04-07T01:58:59.178Z,11.10
2018-04-07T01:59:59.163Z,10.60
2018-04-07T02:00:59.150Z,9.60
2018-04-07T02:01:59.138Z,10.70
2018-04-07T02:02:59.129Z,9.00
2018-04-07T02:03:59.109Z,9.40
2018-04-07T02:04:59.097Z,10.00
2018-04-07T02:05:59.082Z,10.80
2018-04-07T02:06:59.073Z,10.50
2018-04-07T02:07:59.063Z,11.00
2018-04-07T02:08:59.051Z,12.00
2018-04-07T02:09:59.031Z,11.10
2018-04-07T02:10:59.017Z,11.30
2018-04-07T02:11:59.005Z,10.70
2018-04-07T02:12:58.990Z,11.10
2018-04-07T02:13:58.979Z,10.10
2018-04-07T02:14:58.964Z,11.50
2018-04-07T02:15:58.964Z,10.90
2018-04-07T02:16:58.944Z,10.60
2018-04-07T02:17:58.923Z,11.50
2018-04-07T02:18:58.912Z,10.60
2018-04-07T02:19:58.897Z,10.80
2018-04-07T02:20:58.889Z,10.80
2018-04-07T02:21:58.872Z,11.00
2018-04-07T02:22:58.863Z,10.50
2018-04-07T02:23:58.843Z,10.20
2018-04-07T02:24:58.837Z,11.30
2018-04-07T02:25:58.825Z,10.30
2018-04-07T02:26:58.810Z,11.60
2018-04-07T02:27:58.796Z,10.30
2018-04-07T02:28:58.779Z,11.00
2018-04-07T02:29:58.766Z,11.00
2018-04-07T02:30:58.754Z,10.40
2018-04-07T02:31:58.748Z,10.60
2018-04-07T02:32:58.775Z,10.00
2018-04-07T02:33:58.714Z,10.70
2018-04-07T02:34:58.710Z,9.80
2018-04-07T02:35:58.694Z,10.60
2018-04-07T02:36:58.678Z,9.90
2018-04-07T02:37:58.658Z,9.60
2018-04-07T02:38:58.650Z,9.10
2018-04-07T02:39:58.636Z,9.10
2018-04-07T02:40:58.623Z,8.80
2018-04-07T02:41:58.603Z,9.90
2018-04-07T02:42:58.596Z,9.80
2018-04-07T02:43:58.580Z,9.60
2018-04-07T02:44:58.565Z,9.40
2018-04-07T02:45:58.561Z,8.80
2018-04-07T02:46:58.537Z,7.80
2018-04-07T02:47:58.522Z,9.10
2018-04-07T02:48:58.514Z,10.40
2018-04-07T02:49:58.499Z,11.10
2018-04-07T02:50:58.483Z,10.30
2018-04-07T02:51:58.479Z,10.10
2018-04-07T02:52:58.463Z,10.20
2018-04-07T02:53:58.442Z,10.10
2018-04-07T02:54:58.433Z,10.50
2018-04-07T02:55:58.417Z,10.20
2018-04-07T02:56:58.401Z,9.70
2018-04-07T02:57:58.386Z,10.30
2018-04-07T02:58:58.373Z,9.30
2018-04-07T02:59:58.362Z,10.10
2018-04-07T03:00:58.349Z,10.00
2018-04-07T03:01:58.335Z,10.00
2018-04-07T03:02:58.321Z,9.50
2018-04-07T03:03:58.305Z,10.30
2018-04-07T03:04:58.297Z,9.50
2018-04-07T03:05:58.279Z,9.70
2018-04-07T03:06:58.265Z,9.90
2018-04-07T03:07:58.251Z,8.80
2018-04-07T03:08:58.242Z,10.00
2018-04-07T03:09:58.223Z,10.40
2018-04-07T03:10:58.216Z,9.40
2018-04-07T03:11:58.196Z,9.70
2018-04-07T03:12:58.187Z,10.20
2018-04-07T03:13:58.167Z,10.10
2018-04-07T03:14:58.155Z,10.10
2018-04-07T03:15:58.141Z,9.60
2018-04-07T03:16:58.129Z,10.20
2018-04-07T03:17:58.115Z,9.30
2018-04-07T03:18:58.102Z,10.40
2018-04-07T03:19:58.084Z,10.00
2018-04-07T03:20:58.073Z,11.20
2018-04-07T03:21:58.062Z,11.50
2018-04-07T03:22:58.048Z,10.90
2018-04-07T03:23:58.035Z,11.50
2018-04-07T03:24:58.017Z,11.50
2018-04-07T03:25:58.000Z,11.60
2018-04-07T03:26:57.985Z,12.50
2018-04-07T03:27:57.976Z,12.30
2018-04-07T03:28:57.960Z,12.30
2018-04-07T03:29:57.945Z,11.80
2018-04-07T03:30:57.932Z,12.90
2018-04-07T03:31:57.917Z,12.40
2018-04-07T03:32:57.904Z,12.20
2018-04-07T03:33:57.889Z,11.90
2018-04-07T03:34:57.875Z,11.90
2018-04-07T03:35:57.870Z,10.50
2018-04-07T03:36:57.847Z,10.90
2018-04-07T03:37:57.833Z,10.20
2018-04-07T03:38:57.821Z,11.00
2018-04-07T03:39:57.812Z,10.40
2018-04-07T03:40:57.792Z,10.10
2018-04-07T03:41:57.779Z,11.00
2018-04-07T03:42:57.765Z,10.70
2018-04-07T03:43:57.758Z,9.80
2018-04-07T03:44:57.749Z,10.60
2018-04-07T03:45:57.722Z,10.40
2018-04-07T03:46:57.707Z,9.80
2018-04-07T03:47:57.702Z,9.20
2018-04-07T03:48:57.680Z,10.10
2018-04-07T03:49:57.665Z,9.90
2018-04-07T03:50:57.657Z,9.70
2018-04-07T03:51:57.638Z,10.20
2018-04-07T03:52:57.630Z,10.50
2018-04-07T03:53:57.608Z,9.70
2018-04-07T03:54:57.596Z,9.80
2018-04-07T03:55:57.583Z,10.20
2018-04-07T03:56:57.575Z,10.60
2018-04-07T03:57:57.551Z,9.70
2018-04-07T03:58:57.543Z,10.40
2018-04-07T03:59:57.526Z,9.80
2018-04-07T04:00:57.509Z,10.10
2018-04-07T04:01:57.495Z,9.50
2018-04-07T04:02:57.480Z,9.70
2018-04-07T04:03:57.472Z,10.50
2018-04-07T04:04:57.452Z,10.20
2018-04-07T04:05:57.437Z,9.70
2018-04-07T04:06:57.429Z,10.00
2018-04-07T04:07:57.410Z,10.50
2018-04-07T04:08:57.395Z,10.00
2018-04-07T04:09:57.385Z,10.30
2018-04-07T04:10:57.367Z,10.30
2018-04-07T04:11:57.357Z,10.20
2018-04-07T04:12:57.344Z,9.60
2018-04-07T04:13:57.329Z,10.00
2018-04-07T04:14:57.308Z,9.00
2018-04-07T04:15:57.294Z,10.30
2018-04-07T04:16:57.285Z,9.40
2018-04-07T04:17:57.263Z,9.60
2018-04-07T04:18:57.259Z,9.90
2018-04-07T04:19:57.239Z,10.10
2018-04-07T04:20:57.222Z,10.40
2018-04-07T04:21:57.214Z,10.20
2018-04-07T04:22:57.195Z,11.40
2018-04-07T04:23:57.188Z,10.80
2018-04-07T04:24:57.170Z,11.30
2018-04-07T04:25:57.152Z,11.30
2018-04-07T04:26:57.136Z,10.70
2018-04-07T04:27:57.129Z,11.30
2018-04-07T04:28:57.107Z,10.70
2018-04-07T04:29:57.094Z,10.80
2018-04-07T04:30:57.078Z,10.40
2018-04-07T04:31:57.069Z,11.30
2018-04-07T04:32:57.055Z,11.60
2018-04-07T04:33:57.035Z,12.20
2018-04-07T04:34:57.030Z,11.30
2018-04-07T04:35:57.010Z,11.70
2018-04-07T04:36:56.989Z,11.40
2018-04-07T04:37:56.984Z,12.00
2018-04-07T04:38:56.961Z,12.90
2018-04-07T04:39:56.946Z,12.80
2018-04-07T04:40:56.939Z,13.30
2018-04-07T04:41:56.918Z,12.30
2018-04-07T04:42:56.905Z,12.80
2018-04-07T04:43:56.888Z,12.50
2018-04-07T04:44:56.874Z,13.10
2018-04-07T04:45:56.860Z,12.70
2018-04-07T04:46:56.847Z,13.00
2018-04-07T04:47:56.843Z,12.90
2018-04-07T04:48:56.817Z,12.50
2018-04-07T04:49:56.806Z,12.00
2018-04-07T04:50:56.787Z,12.70
2018-04-07T04:51:56.777Z,12.60
2018-04-07T04:52:56.757Z,12.40
2018-04-07T04:53:56.748Z,12.20
2018-04-07T04:54:56.727Z,13.00
2018-04-07T04:55:56.714Z,12.70
2018-04-07T04:56:56.706Z,12.00
2018-04-07T04:57:56.689Z,11.90
2018-04-07T04:58:56.671Z,12.20
2018-04-07T04:59:56.654Z,13.20
2018-04-07T05:00:56.640Z,12.70
2018-04-07T05:01:56.623Z,13.10
2018-04-07T05:02:56.615Z,12.70
2018-04-07T05:03:56.600Z,13.40
2018-04-07T05:04:56.582Z,12.20
2018-04-07T05:05:56.572Z,12.70
2018-04-07T05:06:56.560Z,12.50
2018-04-07T05:07:56.537Z,13.10
2018-04-07T05:08:56.524Z,13.20
2018-04-07T05:09:56.510Z,10.90
2018-04-07T05:10:56.493Z,12.40
2018-04-07T05:11:56.480Z,13.20
2018-04-07T05:12:56.465Z,12.30
2018-04-07T05:13:56.453Z,12.50
2018-04-07T05:14:56.435Z,12.70
2018-04-07T05:15:56.420Z,12.80
2018-04-07T05:16:56.411Z,12.70
2018-04-07T05:17:56.391Z,12.50
2018-04-07T05:18:56.379Z,12.40
2018-04-07T05:19:56.360Z,13.10
2018-04-07T05:20:56.356Z,13.00
2018-04-07T05:21:56.339Z,12.20
2018-04-07T05:22:56.317Z,13.10
2018-04-07T05:23:56.308Z,13.60
2018-04-07T05:24:56.287Z,12.30
2018-04-07T05:25:56.290Z,13.00
2018-04-07T05:26:56.259Z,12.80
2018-04-07T05:27:56.244Z,13.20
2018-04-07T05:28:56.230Z,13.40
2018-04-07T05:29:56.214Z,13.80
2018-04-07T05:30:56.199Z,13.50
2018-04-07T05:31:56.197Z,13.00
2018-04-07T05:32:56.176Z,12.20
2018-04-07T05:33:56.157Z,13.10
2018-04-07T05:34:56.143Z,13.00
2018-04-07T05:35:56.134Z,12.60
2018-04-07T05:36:56.112Z,12.50
2018-04-07T05:37:56.096Z,13.20
2018-04-07T05:38:56.090Z,14.10
2018-04-07T05:39:56.070Z,13.60
2018-04-07T05:40:56.061Z,12.50
2018-04-07T05:41:56.039Z,13.20
2018-04-07T05:42:56.030Z,11.80
2018-04-07T05:43:56.010Z,12.70
2018-04-07T05:44:55.996Z,12.70
2018-04-07T05:45:56.001Z,12.10
2018-04-07T05:46:55.967Z,13.00
2018-04-07T05:47:55.952Z,12.70
2018-04-07T05:48:55.942Z,12.10
2018-04-07T05:49:55.928Z,13.00
2018-04-07T05:50:55.911Z,13.10
2018-04-07T05:51:55.894Z,13.00
2018-04-07T05:52:55.884Z,13.20
2018-04-07T05:53:55.868Z,13.20
2018-04-07T05:54:55.859Z,12.40
2018-04-07T05:55:55.836Z,12.10
2018-04-07T05:56:55.824Z,12.20
2018-04-07T05:57:55.808Z,13.40
2018-04-07T05:58:55.796Z,12.80
2018-04-07T05:59:55.786Z,13.10
2018-04-07T06:00:55.821Z,11.60
2018-04-07T06:01:55.754Z,12.30
2018-04-07T06:02:55.742Z,12.50
2018-04-07T06:03:55.732Z,12.50
2018-04-07T06:04:55.713Z,12.10
2018-04-07T06:05:55.699Z,11.50
2018-04-07T06:06:55.691Z,12.40
2018-04-07T06:07:55.680Z,12.50
2018-04-07T06:08:55.658Z,12.30
2018-04-07T06:09:55.644Z,11.80
2018-04-07T06:10:55.637Z,11.40
2018-04-07T06:11:55.617Z,12.20
2018-04-07T06:12:55.605Z,12.00
2018-04-07T06:13:55.591Z,11.90
2018-04-07T06:14:55.580Z,12.40
2018-04-07T06:15:55.567Z,12.50
2018-04-07T06:16:55.561Z,12.30
2018-04-07T06:17:55.538Z,11.60
2018-04-07T06:18:55.526Z,11.90
2018-04-07T06:19:55.514Z,12.10
2018-04-07T06:20:55.501Z,11.80
2018-04-07T06:21:55.491Z,11.90
2018-04-07T06:22:55.479Z,11.90
2018-04-07T06:23:55.462Z,12.00
2018-04-07T06:24:55.454Z,10.30
2018-04-07T06:25:55.435Z,12.20
2018-04-07T06:26:55.424Z,12.10
2018-04-07T06:27:55.416Z,11.80
2018-04-07T06:28:55.397Z,12.20
2018-04-07T06:29:55.385Z,11.60
2018-04-07T06:30:55.373Z,12.10
2018-04-07T06:31:55.362Z,12.00
2018-04-07T06:32:55.348Z,12.00
2018-04-07T06:33:55.337Z,12.70
2018-04-07T06:34:55.370Z,12.70
2018-04-07T06:35:55.311Z,11.20
2018-04-07T06:36:55.306Z,12.50
2018-04-07T06:37:55.285Z,12.00
2018-04-07T06:38:55.283Z,11.80
2018-04-07T06:39:55.262Z,11.30
2018-04-07T06:40:55.250Z,12.50
2018-04-07T06:41:55.245Z,12.00
2018-04-07T06:42:55.227Z,11.90
2018-04-07T06:43:55.213Z,12.60
2018-04-07T06:44:55.203Z,11.30
2018-04-07T06:45:55.200Z,12.50
2018-04-07T06:46:55.188Z,12.10
2018-04-07T06:47:55.169Z,11.80
2018-04-07T06:48:55.156Z,13.10
2018-04-07T06:49:55.143Z,11.40
2018-04-07T06:50:55.141Z,12.10
2018-04-07T06:51:55.120Z,11.30
2018-04-07T06:52:55.111Z,11.30
2018-04-07T06:53:55.103Z,12.40
2018-04-07T06:54:55.096Z,12.00
2018-04-07T06:55:55.074Z,12.40
2018-04-07T06:56:55.070Z,13.00
2018-04-07T06:57:55.053Z,11.10
2018-04-07T06:58:55.041Z,12.80
2018-04-07T06:59:55.031Z,13.10
2018-04-07T07:00:55.019Z,12.40
2018-04-07T07:01:55.008Z,12.20
2018-04-07T07:02:54.998Z,12.00
2018-04-07T07:03:54.984Z,12.10
2018-04-07T07:04:54.974Z,11.50
2018-04-07T07:05:54.972Z,12.80
2018-04-07T07:06:54.957Z,12.50
2018-04-07T07:07:54.945Z,12.60
2018-04-07T07:08:54.958Z,13.20
2018-04-07T07:09:54.921Z,12.70
2018-04-07T07:10:54.912Z,13.00
2018-04-07T07:11:54.897Z,12.40
2018-04-07T07:12:54.886Z,13.10
2018-04-07T07:13:54.875Z,12.40
2018-04-07T07:14:54.868Z,12.80
2018-04-07T07:15:54.854Z,12.30
2018-04-07T07:16:54.842Z,13.10
2018-04-07T07:17:54.832Z,13.40
2018-04-07T07:18:54.822Z,12.70
2018-04-07T07:19:54.810Z,13.10
2018-04-07T07:20:54.808Z,13.50
2018-04-07T07:21:54.792Z,13.40
2018-04-07T07:22:54.781Z,14.50
2018-04-07T07:23:54.778Z,13.00
2018-04-07T07:24:54.761Z,13.90
2018-04-07T07:25:54.748Z,13.80
2018-04-07T07:26:54.743Z,13.40
2018-04-07T07:27:54.729Z,12.90
2018-04-07T07:28:54.718Z,13.50
2018-04-07T07:29:54.709Z,13.80
2018-04-07T07:30:54.702Z,13.50
2018-04-07T07:31:54.689Z,13.60
2018-04-07T07:32:54.680Z,13.40
2018-04-07T07:33:54.668Z,13.90
2018-04-07T07:34:54.657Z,14.30
2018-04-07T07:35:54.649Z,13.60
2018-04-07T07:36:54.638Z,13.60
2018-04-07T07:37:54.626Z,13.70
2018-04-07T07:38:54.626Z,13.90
2018-04-07T07:39:54.613Z,13.70
2018-04-07T07:40:54.599Z,13.10
2018-04-07T07:41:54.593Z,14.20
2018-04-07T07:42:54.585Z,14.10
2018-04-07T07:43:54.570Z,14.80
2018-04-07T07:44:54.557Z,13.60
2018-04-07T07:45:54.547Z,15.20
2018-04-07T07:46:54.540Z,14.30
2018-04-07T07:47:54.530Z,15.30
2018-04-07T07:48:54.526Z,14.00
2018-04-07T07:49:54.510Z,14.90
2018-04-07T07:50:54.523Z,14.70
2018-04-07T07:51:54.491Z,13.80
2018-04-07T07:52:54.491Z,14.70
2018-04-07T07:53:54.481Z,14.80
2018-04-07T07:54:54.464Z,14.90
2018-04-07T07:55:54.454Z,15.60
2018-04-07T07:56:54.445Z,15.10
2018-04-07T07:57:54.447Z,15.20
2018-04-07T07:58:54.427Z,15.30
2018-04-07T07:59:54.451Z,14.90
2018-04-07T08:00:54.410Z,15.30
2018-04-07T08:01:54.399Z,15.60
2018-04-07T08:02:54.393Z,15.00
2018-04-07T08:03:54.381Z,15.80
2018-04-07T08:04:54.373Z,17.30
2018-04-07T08:05:54.364Z,16.30
2018-04-07T08:06:54.358Z,15.90
2018-04-07T08:07:54.355Z,15.60
2018-04-07T08:08:54.339Z,16.00
2018-04-07T08:09:54.329Z,16.90
2018-04-07T08:10:54.328Z,15.10
2018-04-07T08:11:54.314Z,14.90
2018-04-07T08:12:54.310Z,15.90
2018-04-07T08:13:54.297Z,15.40
2018-04-07T08:14:54.287Z,15.40
2018-04-07T08:15:54.278Z,15.50
2018-04-07T08:16:54.271Z,16.00
2018-04-07T08:17:54.261Z,16.20
2018-04-07T08:18:54.254Z,16.00
2018-04-07T08:19:54.245Z,15.80
2018-04-07T08:20:54.239Z,16.30
2018-04-07T08:21:54.228Z,16.70
2018-04-07T08:22:54.240Z,16.70
2018-04-07T08:23:54.213Z,16.30
2018-04-07T08:24:54.208Z,16.10
2018-04-07T08:25:54.194Z,16.00
2018-04-07T08:26:54.184Z,15.70
2018-04-07T08:27:54.179Z,16.50
2018-04-07T08:28:54.170Z,16.70
2018-04-07T08:29:54.159Z,15.70
2018-04-07T08:30:54.153Z,16.60
2018-04-07T08:31:54.154Z,16.80
2018-04-07T08:32:54.137Z,15.90
2018-04-07T08:33:54.128Z,16.50
2018-04-07T08:34:54.120Z,16.00
2018-04-07T08:35:54.111Z,16.10
2018-04-07T08:36:54.103Z,16.30
2018-04-07T08:37:54.101Z,15.10
2018-04-07T08:38:54.085Z,15.70
2018-04-07T08:39:54.079Z,15.90
2018-04-07T08:40:54.077Z,16.50
2018-04-07T08:41:54.063Z,16.60
2018-04-07T08:42:54.053Z,16.70
2018-04-07T08:43:54.045Z,16.00
2018-04-07T08:44:54.037Z,16.00
2018-04-07T08:45:54.030Z,15.20
2018-04-07T08:46:54.020Z,15.40
2018-04-07T08:47:54.015Z,14.40
2018-04-07T08:48:54.007Z,16.00
2018-04-07T08:49:54.005Z,15.30
2018-04-07T08:50:53.990Z,15.60
2018-04-07T08:51:53.987Z,15.50
2018-04-07T08:52:53.975Z,15.70
2018-04-07T08:53:53.967Z,16.40
2018-04-07T08:54:53.957Z,16.80
2018-04-07T08:55:53.950Z,16.40
2018-04-07T08:56:53.951Z,15.80
2018-04-07T08:57:53.934Z,15.90
2018-04-07T08:58:53.927Z,15.90
2018-04-07T08:59:53.918Z,16.60
2018-04-07T09:00:53.912Z,17.80
2018-04-07T09:01:53.902Z,16.30
2018-04-07T09:02:53.894Z,15.90
2018-04-07T09:03:53.892Z,17.50
2018-04-07T09:04:53.881Z,17.90
2018-04-07T09:05:53.879Z,16.20
2018-04-07T09:06:53.872Z,17.30
2018-04-07T09:07:53.869Z,15.90
2018-04-07T09:08:53.851Z,16.10
2018-04-07T09:09:53.845Z,16.80
2018-04-07T09:10:53.835Z,16.80
2018-04-07T09:11:53.834Z,16.50
2018-04-07T09:12:53.821Z,15.40
2018-04-07T09:13:53.823Z,16.00
2018-04-07T09:14:53.806Z,15.20
2018-04-07T09:15:53.797Z,15.80
2018-04-07T09:16:53.793Z,15.90
2018-04-07T09:17:53.784Z,16.10
2018-04-07T09:18:53.781Z,16.20
2018-04-07T09:19:53.770Z,15.30
2018-04-07T09:20:53.771Z,16.20
2018-04-07T09:21:53.757Z,14.80
2018-04-07T09:22:53.752Z,14.90
2018-04-07T09:23:53.748Z,15.00
2018-04-07T09:24:53.741Z,14.80
2018-04-07T09:25:53.759Z,15.60
2018-04-07T09:26:53.723Z,15.10
2018-04-07T09:27:53.715Z,15.00
2018-04-07T09:28:53.716Z,15.30
2018-04-07T09:29:53.705Z,16.50
2018-04-07T09:30:53.693Z,15.20
2018-04-07T09:31:53.694Z,14.90
2018-04-07T09:32:53.680Z,14.40
2018-04-07T09:33:53.674Z,15.40
2018-04-07T09:34:53.666Z,14.80
2018-04-07T09:35:53.663Z,14.70
2018-04-07T09:36:53.655Z,14.60
2018-04-07T09:37:53.647Z,14.10
2018-04-07T09:38:53.646Z,15.40
2018-04-07T09:39:53.634Z,14.80
2018-04-07T09:40:53.633Z,14.70
2018-04-07T09:41:53.629Z,13.20
2018-04-07T09:42:53.617Z,13.70
2018-04-07T09:43:53.620Z,14.40
2018-04-07T09:44:53.606Z,13.70
2018-04-07T09:45:53.600Z,14.70
2018-04-07T09:46:53.597Z,14.30
2018-04-07T09:47:53.584Z,13.70
2018-04-07T09:48:53.578Z,14.40
2018-04-07T09:49:53.578Z,14.20
2018-04-07T09:50:53.616Z,14.20
2018-04-07T09:51:53.568Z,13.90
2018-04-07T09:52:53.555Z,14.70
2018-04-07T09:53:53.546Z,13.60
2018-04-07T09:54:53.544Z,14.30
2018-04-07T09:55:53.539Z,13.80
2018-04-07T09:56:53.531Z,14.10
2018-04-07T09:57:53.524Z,14.20
2018-04-07T09:58:53.532Z,14.20
2018-04-07T09:59:53.514Z,14.50
2018-04-07T10:00:53.519Z,14.60
2018-04-07T10:01:53.501Z,14.00
2018-04-07T10:02:53.498Z,13.80
2018-04-07T10:03:53.495Z,13.60
2018-04-07T10:04:53.485Z,14.00
2018-04-07T10:05:53.478Z,13.40
2018-04-07T10:06:53.474Z,14.00
2018-04-07T10:07:53.471Z,13.90
2018-04-07T10:08:53.464Z,14.60
2018-04-07T10:09:53.456Z,14.00
2018-04-07T10:10:53.452Z,13.40
2018-04-07T10:11:53.446Z,14.50
2018-04-07T10:12:53.449Z,13.00
2018-04-07T10:13:53.435Z,13.90
2018-04-07T10:14:53.431Z,13.80
2018-04-07T10:15:53.427Z,12.90
2018-04-07T10:16:53.422Z,14.40
2018-04-07T10:17:53.426Z,13.70
2018-04-07T10:18:53.417Z,14.30
2018-04-07T10:19:53.406Z,14.60
2018-04-07T10:20:53.399Z,14.20
2018-04-07T10:21:53.395Z,13.90
2018-04-07T10:22:53.388Z,13.80
2018-04-07T10:23:53.383Z,14.30
2018-04-07T10:24:53.377Z,13.90
2018-04-07T10:25:53.371Z,13.50
2018-04-07T10:26:53.369Z,14.50
2018-04-07T10:27:53.363Z,14.40
2018-04-07T10:28:53.356Z,15.10
2018-04-07T10:29:53.354Z,14.10
2018-04-07T10:30:53.351Z,14.60
2018-04-07T10:31:53.348Z,13.70
2018-04-07T10:32:53.343Z,13.60
2018-04-07T10:33:53.338Z,14.00
2018-04-07T10:34:53.332Z,13.30
2018-04-07T10:35:53.322Z,13.30
2018-04-07T10:36:53.318Z,13.70
2018-04-07T10:37:53.313Z,13.50
2018-04-07T10:38:53.309Z,14.40
2018-04-07T10:39:53.302Z,13.20
2018-04-07T10:40:53.298Z,13.30
2018-04-07T10:41:53.301Z,12.50
2018-04-07T10:42:53.288Z,13.20
2018-04-07T10:43:53.283Z,13.50
2018-04-07T10:44:53.289Z,12.80
2018-04-07T10:45:53.274Z,12.20
2018-04-07T10:46:53.271Z,12.40
2018-04-07T10:47:53.270Z,13.50
2018-04-07T10:48:53.260Z,12.20
2018-04-07T10:49:53.255Z,11.20
2018-04-07T10:50:53.251Z,12.00
2018-04-07T10:51:53.246Z,11.30
2018-04-07T10:52:53.247Z,11.30
2018-04-07T10:53:53.235Z,10.40
2018-04-07T10:54:53.230Z,11.00
2018-04-07T10:55:53.235Z,11.20
2018-04-07T10:56:53.229Z,12.20
2018-04-07T10:57:53.220Z,12.20
2018-04-07T10:58:53.213Z,11.70
2018-04-07T10:59:53.216Z,11.30
2018-04-07T11:00:53.203Z,10.80
2018-04-07T11:01:53.199Z,11.50
2018-04-07T11:02:53.194Z,10.90
2018-04-07T11:03:53.199Z,11.20
2018-04-07T11:04:53.189Z,10.30
2018-04-07T11:05:53.182Z,10.30
2018-04-07T11:06:53.178Z,9.30
2018-04-07T11:07:53.175Z,9.60
2018-04-07T11:08:53.174Z,9.70
2018-04-07T11:09:53.164Z,10.70
2018-04-07T11:10:53.162Z,10.60
2018-04-07T11:11:53.157Z,10.10
2018-04-07T11:12:53.152Z,10.40
2018-04-07T11:13:53.150Z,9.90
2018-04-07T11:14:53.152Z,8.30
2018-04-07T11:15:53.141Z,8.80
2018-04-07T11:16:53.139Z,9.90
2018-04-07T11:17:53.143Z,10.00
2018-04-07T11:18:53.156Z,9.90
2018-04-07T11:19:53.126Z,10.00
2018-04-07T11:20:53.126Z,10.00
2018-04-07T11:21:53.126Z,9.80
2018-04-07T11:22:53.131Z,9.60
2018-04-07T11:23:53.122Z,9.90
2018-04-07T11:24:53.114Z,9.20
2018-04-07T11:25:53.117Z,10.00
2018-04-07T11:26:53.106Z,9.80
2018-04-07T11:27:53.098Z,9.20
2018-04-07T11:28:53.098Z,10.00
2018-04-07T11:29:53.120Z,9.50
2018-04-07T11:30:53.092Z,9.00
2018-04-07T11:31:53.091Z,9.00
2018-04-07T11:32:53.094Z,10.40
2018-04-07T11:33:53.077Z,9.30
2018-04-07T11:34:53.076Z,10.10
2018-04-07T11:35:53.078Z,9.50
2018-04-07T11:36:53.076Z,10.10
2018-04-07T11:37:53.064Z,10.30
2018-04-07T11:38:53.071Z,10.90
2018-04-07T11:39:53.058Z,10.70
2018-04-07T11:40:53.062Z,10.80
2018-04-07T11:41:53.053Z,10.50
2018-04-07T11:42:53.062Z,11.70
2018-04-07T11:43:53.053Z,10.40
2018-04-07T11:44:53.044Z,10.10
2018-04-07T11:45:53.042Z,10.30
2018-04-07T11:46:53.043Z,10.60
2018-04-07T11:47:53.037Z,10.00
2018-04-07T11:48:53.040Z,10.50
2018-04-07T11:49:53.036Z,10.60
2018-04-07T11:50:53.027Z,10.50
2018-04-07T11:51:53.024Z,9.90
2018-04-07T11:52:53.025Z,10.30
2018-04-07T11:53:53.028Z,10.20
2018-04-07T11:54:53.017Z,10.00
2018-04-07T11:55:53.014Z,9.70
2018-04-07T11:56:53.018Z,10.60
2018-04-07T11:57:53.008Z,10.20
2018-04-07T11:58:53.012Z,10.00
2018-04-07T11:59:53.004Z,8.70
2018-04-07T12:00:53.008Z,10.30
2018-04-07T12:01:53.003Z,9.80
2018-04-07T12:02:52.998Z,9.70
2018-04-07T12:03:52.998Z,9.50
2018-04-07T12:04:52.994Z,9.80
2018-04-07T12:05:52.990Z,9.50
2018-04-07T12:06:52.996Z,10.00
2018-04-07T12:07:53.024Z,9.80
2018-04-07T12:08:52.985Z,10.70
2018-04-07T12:09:52.987Z,9.60
2018-04-07T12:10:52.986Z,8.80
2018-04-07T12:11:52.978Z,8.50
2018-04-07T12:12:52.976Z,8.90
2018-04-07T12:13:52.980Z,7.50
2018-04-07T12:14:52.974Z,7.90
2018-04-07T12:15:52.971Z,7.70
2018-04-07T12:16:52.970Z,7.90
2018-04-07T12:17:52.969Z,8.40
2018-04-07T12:18:52.972Z,7.60
2018-04-07T12:19:52.964Z,7.90
2018-04-07T12:20:52.961Z,8.80
2018-04-07T12:21:52.961Z,8.90
2018-04-07T12:22:52.961Z,8.70
2018-04-07T12:23:52.959Z,8.30
2018-04-07T12:24:52.953Z,8.40
2018-04-07T12:25:52.951Z,8.60
2018-04-07T12:26:52.956Z,9.20
2018-04-07T12:27:52.945Z,8.40
2018-04-07T12:28:52.949Z,8.60
2018-04-07T12:29:52.941Z,8.50
2018-04-07T12:30:52.940Z,8.70
2018-04-07T12:31:52.940Z,8.60
2018-04-07T12:32:52.942Z,8.30
2018-04-07T12:33:52.979Z,8.80
2018-04-07T12:34:52.933Z,8.40
2018-04-07T12:35:52.933Z,7.40
2018-04-07T12:36:52.932Z,8.20
2018-04-07T12:37:52.936Z,8.80
2018-04-07T12:38:52.925Z,9.00
2018-04-07T12:39:52.925Z,8.60
2018-04-07T12:40:52.930Z,8.60
2018-04-07T12:41:52.925Z,8.60
2018-04-07T12:42:52.921Z,9.00
2018-04-07T12:43:52.918Z,8.70
2018-04-07T12:44:52.915Z,9.00
2018-04-07T12:45:52.922Z,8.10
2018-04-07T12:46:52.915Z,8.20
2018-04-07T12:47:52.910Z,8.10
2018-04-07T12:48:52.914Z,8.30
2018-04-07T12:49:52.907Z,8.50
2018-04-07T12:50:52.905Z,8.10
2018-04-07T12:51:52.906Z,8.40
2018-04-07T12:52:52.904Z,7.70
2018-04-07T12:53:52.907Z,8.30
2018-04-07T12:54:52.901Z,7.60
2018-04-07T12:55:52.900Z,8.00